Time;durP1;ratioP1;P1;durP2;ratioP2;P2;SDS_P1;SDS_P2;PMS_P1;PMS_P2;Temp;Humidity;BMP_temperature;BMP_pressure;BME280_temperature;BME280_humidity;BME280_pressure;Samples;Min_cycle;Max_cycle;Signal;HPM_P1;HPM_P2
2023/08/08 00:02:24;;;;;;;4.80;2.87;;;12.60;99.90;;;;;;5053531;28;20214;-79
2023/08/08 00:04:50;;;;;;;4.60;2.20;;;12.60;99.90;;;;;;5052453;28;20207;-79
2023/08/08 00:07:17;;;;;;;5.67;2.87;;;12.60;99.90;;;;;;5051989;28;20202;-79
2023/08/08 00:09:44;;;;;;;5.50;2.70;;;12.70;99.90;;;;;;5050716;28;20202;-79
2023/08/08 00:12:11;;;;;;;3.53;2.87;;;12.70;99.90;;;;;;5064890;28;20195;-77
2023/08/08 00:14:40;;;;;;;4.10;2.40;;;12.60;99.90;;;;;;5053086;28;20207;-79
2023/08/08 00:17:06;;;;;;;5.03;2.70;;;12.70;99.90;;;;;;5051380;28;20669;-79
2023/08/08 00:19:34;;;;;;;5.07;2.60;;;12.60;99.90;;;;;;5052911;28;20203;-79
2023/08/08 00:22:00;;;;;;;7.13;2.57;;;12.50;99.90;;;;;;5051813;28;20226;-79
2023/08/08 00:24:27;;;;;;;3.90;2.60;;;12.70;99.90;;;;;;5056577;28;20203;-79
2023/08/08 00:26:54;;;;;;;6.37;2.60;;;12.60;99.90;;;;;;5055265;28;20194;-78
2023/08/08 00:29:21;;;;;;;6.20;2.80;;;12.60;99.90;;;;;;5056687;28;20215;-79
2023/08/08 00:31:49;;;;;;;3.80;2.50;;;12.60;99.90;;;;;;5055187;28;20203;-78
2023/08/08 00:34:16;;;;;;;5.27;2.43;;;12.60;99.90;;;;;;5057442;28;20195;-78
2023/08/08 00:36:42;;;;;;;5.80;2.70;;;12.60;99.90;;;;;;5057495;28;20207;-79
2023/08/08 00:39:09;;;;;;;6.63;3.03;;;12.70;99.90;;;;;;5056739;28;20230;-80
2023/08/08 00:41:36;;;;;;;6.83;2.93;;;12.70;99.90;;;;;;5054817;28;20586;-79
2023/08/08 00:44:03;;;;;;;5.73;2.53;;;12.70;99.90;;;;;;5055865;28;20211;-79
2023/08/08 00:46:30;;;;;;;4.77;3.13;;;12.70;99.90;;;;;;5053769;28;20282;-80
2023/08/08 00:48:58;;;;;;;10.20;2.90;;;12.70;99.90;;;;;;5053690;28;20230;-79
2023/08/08 00:51:26;;;;;;;5.23;3.00;;;12.70;99.90;;;;;;5057007;28;20213;-78
2023/08/08 00:53:53;;;;;;;6.03;2.97;;;12.70;99.90;;;;;;5056407;28;20203;-79
2023/08/08 00:56:20;;;;;;;5.93;3.00;;;12.70;99.90;;;;;;5054982;28;20253;-78
2023/08/08 00:58:46;;;;;;;4.77;2.80;;;12.60;99.90;;;;;;5053366;28;20219;-78
2023/08/08 01:01:13;;;;;;;7.30;3.07;;;12.70;99.90;;;;;;5056250;28;20223;-78
2023/08/08 01:03:40;;;;;;;6.77;3.00;;;12.60;99.90;;;;;;5052272;28;20210;-79
2023/08/08 01:06:14;;;;;;;6.03;3.13;;;12.60;99.90;;;;;;5054787;28;20205;-79
2023/08/08 01:08:46;;;;;;;6.53;3.73;;;12.70;99.90;;;;;;5053831;28;20222;-80
2023/08/08 01:11:14;;;;;;;6.13;3.30;;;12.60;99.90;;;;;;5052348;28;20215;-79
2023/08/08 01:13:42;;;;;;;5.93;2.90;;;12.70;99.90;;;;;;5054770;28;20281;-78
2023/08/08 01:16:09;;;;;;;6.70;3.07;;;12.60;99.90;;;;;;5057002;28;20615;-79
2023/08/08 01:18:38;;;;;;;4.50;2.83;;;12.60;99.90;;;;;;5055245;28;20226;-79
2023/08/08 01:21:06;;;;;;;5.90;3.33;;;12.70;99.90;;;;;;5052680;28;20199;-79
2023/08/08 01:23:44;;;;;;;5.87;3.13;;;12.60;99.90;;;;;;5055665;28;20313;-79
2023/08/08 01:26:13;;;;;;;5.13;3.03;;;12.60;99.90;;;;;;5054729;28;20210;-78
2023/08/08 01:28:40;;;;;;;3.87;2.80;;;12.60;99.90;;;;;;5056036;28;20314;-79
2023/08/08 01:31:07;;;;;;;4.20;3.10;;;12.60;99.90;;;;;;5056776;28;20215;-79
2023/08/08 01:33:34;;;;;;;6.90;3.10;;;12.70;99.90;;;;;;5056335;28;20206;-79
2023/08/08 01:36:06;;;;;;;5.50;3.10;;;12.70;99.90;;;;;;5053868;28;20195;-79
2023/08/08 01:38:37;;;;;;;5.03;3.17;;;12.60;99.90;;;;;;5053430;28;20235;-79
2023/08/08 01:41:06;;;;;;;4.90;3.00;;;12.60;99.90;;;;;;5053089;28;20209;-78
2023/08/08 01:43:35;;;;;;;5.93;3.20;;;12.60;99.90;;;;;;5054612;28;20233;-79
2023/08/08 01:46:03;;;;;;;3.63;2.53;;;12.50;99.90;;;;;;5053856;28;20211;-80
2023/08/08 01:48:32;;;;;;;6.23;3.27;;;12.60;99.90;;;;;;5056285;28;20219;-79
2023/08/08 01:50:58;;;;;;;4.73;3.27;;;12.50;99.90;;;;;;5053960;28;20603;-79
2023/08/08 01:53:25;;;;;;;6.97;4.27;;;12.60;99.90;;;;;;5053501;28;20195;-77
2023/08/08 01:55:52;;;;;;;5.33;2.90;;;12.60;99.90;;;;;;5055301;28;20297;-78
2023/08/08 01:58:19;;;;;;;6.00;2.87;;;12.60;99.90;;;;;;5055445;28;20222;-79
2023/08/08 02:00:47;;;;;;;5.93;3.00;;;12.50;99.90;;;;;;5054416;28;20202;-79
2023/08/08 02:03:14;;;;;;;5.73;3.00;;;12.50;99.90;;;;;;5055098;28;20582;-79
2023/08/08 02:05:41;;;;;;;6.67;3.27;;;12.60;99.90;;;;;;5054529;28;20271;-79
2023/08/08 02:08:08;;;;;;;6.97;3.60;;;12.50;99.90;;;;;;5054241;28;20225;-78
2023/08/08 02:10:34;;;;;;;6.23;3.40;;;12.60;99.90;;;;;;5053352;28;20727;-78
2023/08/08 02:13:01;;;;;;;9.43;3.73;;;12.70;99.90;;;;;;5053357;28;20237;-79
2023/08/08 02:15:28;;;;;;;6.13;3.30;;;12.70;99.90;;;;;;5055964;28;20199;-79
2023/08/08 02:17:56;;;;;;;10.07;3.97;;;12.80;99.90;;;;;;5054724;28;20310;-78
2023/08/08 02:20:23;;;;;;;5.87;3.90;;;12.80;99.90;;;;;;5056111;28;20230;-78
2023/08/08 02:22:50;;;;;;;7.30;4.20;;;12.80;99.90;;;;;;5055839;28;20266;-79
2023/08/08 02:25:16;;;;;;;4.60;3.53;;;12.80;99.90;;;;;;5055759;28;20229;-80
2023/08/08 02:27:43;;;;;;;6.10;3.83;;;12.80;99.90;;;;;;5051847;28;20256;-79
2023/08/08 02:30:11;;;;;;;7.70;4.10;;;12.90;99.90;;;;;;5055290;28;20203;-80
2023/08/08 02:32:38;;;;;;;9.27;4.87;;;12.90;99.90;;;;;;5051384;28;20213;-79
2023/08/08 02:35:07;;;;;;;6.40;3.77;;;13.00;99.90;;;;;;5054954;28;20198;-78
2023/08/08 02:37:34;;;;;;;6.53;3.80;;;13.10;99.90;;;;;;5055006;28;20231;-78
2023/08/08 02:40:01;;;;;;;5.43;4.00;;;13.00;99.90;;;;;;5051543;28;20204;-78
2023/08/08 02:42:28;;;;;;;8.60;4.77;;;13.10;99.90;;;;;;5051270;28;20219;-79
2023/08/08 02:44:55;;;;;;;5.73;4.00;;;13.10;99.90;;;;;;5054655;28;20209;-80
2023/08/08 02:47:21;;;;;;;8.20;4.33;;;13.00;99.90;;;;;;5054358;28;20206;-80
2023/08/08 02:49:48;;;;;;;7.77;4.30;;;13.00;99.90;;;;;;5054007;28;20593;-78
2023/08/08 02:52:16;;;;;;;8.27;4.20;;;13.10;99.90;;;;;;5054062;28;20199;-78
2023/08/08 02:54:43;;;;;;;7.37;3.90;;;13.10;99.90;;;;;;5055213;28;20245;-79
2023/08/08 02:57:11;;;;;;;8.50;4.53;;;13.20;99.90;;;;;;5052165;28;20210;-79
2023/08/08 02:59:38;;;;;;;7.73;4.57;;;13.20;99.90;;;;;;5055806;28;20295;-79
2023/08/08 03:02:06;;;;;;;8.40;4.40;;;13.30;99.90;;;;;;5055046;28;20671;-78
2023/08/08 03:04:33;;;;;;;5.33;4.23;;;13.30;99.90;;;;;;5055425;28;20207;-79
2023/08/08 03:07:01;;;;;;;7.85;4.22;;;13.30;99.90;;;;;;5055437;28;20207;-78
2023/08/08 03:09:29;;;;;;;7.53;4.03;;;13.40;99.90;;;;;;5054786;28;20231;-78
2023/08/08 03:11:56;;;;;;;6.90;4.27;;;13.50;99.90;;;;;;5055328;28;20203;-80
2023/08/08 03:14:23;;;;;;;5.40;4.00;;;13.50;99.90;;;;;;5054593;28;20199;-78
2023/08/08 03:16:50;;;;;;;8.00;4.43;;;13.50;99.90;;;;;;5055358;28;20209;-79
2023/08/08 03:19:16;;;;;;;7.00;4.13;;;13.50;99.90;;;;;;5056711;28;20222;-77
2023/08/08 03:21:43;;;;;;;9.03;4.50;;;13.50;99.90;;;;;;5056179;28;20669;-79
2023/08/08 03:24:10;;;;;;;7.90;4.43;;;13.50;99.90;;;;;;5056185;28;20215;-78
2023/08/08 03:26:38;;;;;;;8.60;4.37;;;13.60;99.90;;;;;;5055681;28;20217;-81
2023/08/08 03:29:05;;;;;;;10.05;4.57;;;13.50;99.90;;;;;;5055648;28;20223;-79
2023/08/08 03:31:32;;;;;;;7.90;4.30;;;13.50;99.90;;;;;;5054629;28;20198;-78
2023/08/08 03:33:58;;;;;;;7.93;4.97;;;13.50;99.90;;;;;;5056102;28;20196;-79
2023/08/08 03:36:25;;;;;;;7.38;4.88;;;13.60;99.90;;;;;;5055928;28;20209;-80
2023/08/08 03:38:52;;;;;;;7.25;4.18;;;13.60;99.90;;;;;;5052747;28;20250;-79
2023/08/08 03:41:19;;;;;;;6.50;4.17;;;13.50;99.90;;;;;;5052576;28;20207;-80
2023/08/08 03:43:47;;;;;;;8.43;4.17;;;13.60;99.90;;;;;;5053280;28;20223;-79
2023/08/08 03:46:14;;;;;;;7.03;3.73;;;13.60;99.90;;;;;;5052616;28;20289;-79
2023/08/08 03:48:40;;;;;;;8.03;3.93;;;13.60;99.90;;;;;;5052719;28;20704;-80
2023/08/08 03:51:07;;;;;;;8.70;3.77;;;13.60;99.90;;;;;;5054009;28;20215;-79
2023/08/08 03:53:34;;;;;;;7.80;4.00;;;13.60;99.90;;;;;;5054499;28;20199;-79
2023/08/08 03:56:01;;;;;;;8.27;3.77;;;13.60;99.90;;;;;;5054818;28;20210;-80
2023/08/08 03:58:28;;;;;;;8.15;4.05;;;13.60;99.90;;;;;;5054513;28;20602;-79
2023/08/08 04:00:56;;;;;;;10.57;4.10;;;13.50;99.90;;;;;;5055111;28;20665;-80
2023/08/08 04:03:23;;;;;;;4.47;3.53;;;13.50;99.90;;;;;;5055063;28;20245;-79
2023/08/08 04:05:50;;;;;;;7.13;3.70;;;13.50;99.90;;;;;;5054502;28;20206;-79
2023/08/08 04:08:17;;;;;;;4.43;3.60;;;13.50;99.90;;;;;;5053084;28;20233;-78
2023/08/08 04:10:46;;;;;;;5.07;3.60;;;13.60;99.90;;;;;;5054539;28;20202;-80
2023/08/08 04:13:13;;;;;;;5.13;3.20;;;13.50;99.90;;;;;;5055671;28;20206;-80
2023/08/08 04:15:40;;;;;;;4.90;3.30;;;13.50;99.90;;;;;;5055285;28;20587;-80
2023/08/08 04:18:08;;;;;;;6.23;3.47;;;13.50;99.90;;;;;;5055227;28;20783;-80
2023/08/08 04:20:35;;;;;;;6.33;4.00;;;13.50;99.90;;;;;;5054356;28;20206;-78
2023/08/08 04:23:02;;;;;;;6.43;3.50;;;13.60;99.90;;;;;;5053972;28;20223;-79
2023/08/08 04:25:29;;;;;;;6.95;3.30;;;13.50;99.90;;;;;;5054396;28;20207;-79
2023/08/08 04:27:56;;;;;;;8.70;3.33;;;13.60;99.90;;;;;;5054433;28;20229;-79
2023/08/08 04:30:23;;;;;;;4.37;3.20;;;13.60;99.90;;;;;;5054333;28;20211;-79
2023/08/08 04:32:50;;;;;;;5.33;3.43;;;13.60;99.90;;;;;;5054908;28;20665;-80
2023/08/08 04:35:18;;;;;;;4.47;2.87;;;13.70;99.90;;;;;;5054274;28;20201;-79
2023/08/08 04:37:45;;;;;;;4.75;3.08;;;13.70;99.90;;;;;;5054190;28;20225;-78
2023/08/08 04:40:12;;;;;;;3.67;2.73;;;13.70;99.90;;;;;;5054767;28;20289;-79
2023/08/08 04:42:39;;;;;;;4.73;3.00;;;13.70;99.90;;;;;;5046101;28;20199;-80
2023/08/08 04:45:09;;;;;;;5.47;3.00;;;13.80;99.90;;;;;;5054792;28;20203;-78
2023/08/08 04:47:35;;;;;;;7.60;3.17;;;13.80;99.90;;;;;;5054344;28;20222;-79
2023/08/08 04:50:02;;;;;;;5.18;3.60;;;13.80;99.90;;;;;;5054330;28;20290;-78
2023/08/08 04:52:30;;;;;;;4.82;3.08;;;13.80;99.90;;;;;;5054049;28;20221;-79
2023/08/08 04:54:57;;;;;;;3.63;2.67;;;13.80;99.90;;;;;;5053334;28;20701;-79
2023/08/08 04:57:24;;;;;;;3.67;2.78;;;13.90;99.90;;;;;;5051299;28;20707;-79
2023/08/08 04:59:54;;;;;;;4.53;3.00;;;13.90;99.90;;;;;;5053638;28;20577;-78
2023/08/08 05:02:21;;;;;;;5.85;3.50;;;13.90;99.90;;;;;;5052395;28;20302;-79
2023/08/08 05:04:48;;;;;;;3.30;2.92;;;13.90;99.90;;;;;;5053380;28;20241;-79
2023/08/08 05:07:15;;;;;;;7.45;3.80;;;13.90;99.90;;;;;;5053676;28;20235;-79
2023/08/08 05:09:43;;;;;;;5.70;3.20;;;14.00;99.90;;;;;;5057112;28;20266;-79
2023/08/08 05:12:10;;;;;;;3.53;3.03;;;14.00;99.90;;;;;;5057878;28;20282;-79
2023/08/08 05:14:37;;;;;;;5.35;3.53;;;14.20;99.90;;;;;;5057617;28;20696;-78
2023/08/08 05:17:04;;;;;;;7.18;3.80;;;14.10;99.90;;;;;;5057047;28;20214;-80
2023/08/08 05:19:31;;;;;;;6.25;3.60;;;14.10;99.90;;;;;;5057222;28;20213;-80
2023/08/08 05:21:58;;;;;;;6.15;3.80;;;14.10;99.90;;;;;;5057490;28;20203;-79
2023/08/08 05:24:24;;;;;;;4.95;3.80;;;14.20;99.90;;;;;;5056833;28;20215;-78
2023/08/08 05:26:53;;;;;;;6.63;3.65;;;14.20;99.90;;;;;;5057480;28;20207;-80
2023/08/08 05:29:20;;;;;;;6.78;3.45;;;14.10;99.90;;;;;;5056516;28;20219;-79
2023/08/08 05:31:47;;;;;;;5.00;3.63;;;14.10;99.90;;;;;;5056670;28;20252;-81
2023/08/08 05:34:14;;;;;;;6.55;3.60;;;14.10;99.90;;;;;;5057344;28;20207;-79
2023/08/08 05:36:41;;;;;;;4.97;3.65;;;14.20;99.90;;;;;;5057232;28;20316;-78
2023/08/08 05:39:09;;;;;;;5.53;4.15;;;14.10;99.90;;;;;;5056385;28;20655;-78
2023/08/08 05:41:36;;;;;;;5.68;4.10;;;14.10;99.90;;;;;;5057228;28;20203;-79
2023/08/08 05:44:04;;;;;;;4.70;3.92;;;14.20;99.90;;;;;;5056824;28;20231;-80
2023/08/08 05:46:31;;;;;;;4.50;4.03;;;14.20;99.90;;;;;;5056909;28;20305;-79
2023/08/08 05:48:58;;;;;;;6.53;4.25;;;14.30;99.90;;;;;;5056763;28;20227;-79
2023/08/08 05:51:25;;;;;;;6.95;4.78;;;14.30;99.90;;;;;;5057144;28;20474;-79
2023/08/08 05:53:51;;;;;;;9.48;4.97;;;14.40;99.90;;;;;;5056482;28;20286;-80
2023/08/08 05:56:18;;;;;;;5.35;4.38;;;14.50;99.90;;;;;;5056511;28;20210;-79
2023/08/08 05:58:45;;;;;;;9.27;5.07;;;14.50;99.90;;;;;;5056282;28;20277;-79
2023/08/08 06:01:13;;;;;;;7.55;5.00;;;14.50;99.90;;;;;;5056667;28;20199;-79
2023/08/08 06:03:40;;;;;;;7.43;4.97;;;14.60;99.90;;;;;;5056344;28;20752;-79
2023/08/08 06:06:07;;;;;;;6.45;5.07;;;14.50;99.90;;;;;;5056206;28;20207;-79
2023/08/08 06:08:34;;;;;;;8.55;5.28;;;14.60;99.90;;;;;;5055782;28;20233;-80
2023/08/08 06:11:01;;;;;;;9.20;5.53;;;14.60;99.90;;;;;;5056205;28;20215;-78
2023/08/08 06:13:27;;;;;;;7.35;5.40;;;14.70;99.90;;;;;;5056884;28;20571;-79
2023/08/08 06:15:54;;;;;;;7.03;5.05;;;14.70;99.90;;;;;;5056569;28;20199;-79
2023/08/08 06:18:22;;;;;;;9.98;5.40;;;14.80;99.90;;;;;;5056982;28;20223;-79
2023/08/08 06:20:49;;;;;;;7.43;4.93;;;14.90;99.90;;;;;;5047701;28;20205;-79
2023/08/08 06:23:17;;;;;;;8.18;4.72;;;14.80;99.90;;;;;;5056207;28;20203;-78
2023/08/08 06:25:44;;;;;;;5.60;4.72;;;15.00;99.90;;;;;;5055746;28;20206;-80
2023/08/08 06:28:11;;;;;;;6.13;5.20;;;15.00;99.90;;;;;;5055863;28;20280;-80
2023/08/08 06:30:38;;;;;;;6.10;5.13;;;15.00;99.90;;;;;;5055920;28;20293;-81
2023/08/08 06:33:05;;;;;;;7.43;5.20;;;15.00;99.90;;;;;;5063955;28;20235;-79
2023/08/08 06:35:33;;;;;;;6.88;4.80;;;15.00;99.90;;;;;;5055930;28;20579;-80
2023/08/08 06:38:00;;;;;;;6.13;5.13;;;15.10;99.90;;;;;;5059644;28;20700;-79
2023/08/08 06:40:27;;;;;;;6.22;5.63;;;15.20;99.90;;;;;;5072253;28;20294;-79
2023/08/08 06:42:54;;;;;;;9.45;6.15;;;15.20;99.90;;;;;;5065339;28;20309;-80
2023/08/08 06:45:21;;;;;;;8.63;6.20;;;15.30;99.90;;;;;;5062504;28;20215;-79
2023/08/08 06:47:48;;;;;;;7.63;6.05;;;15.30;99.90;;;;;;5056605;28;20250;-80
2023/08/08 06:50:15;;;;;;;8.18;5.85;;;15.50;99.90;;;;;;5058177;28;20623;-78
2023/08/08 06:52:43;;;;;;;9.77;7.35;;;15.60;99.90;;;;;;5058167;28;20680;-80
2023/08/08 06:55:11;;;;;;;10.55;6.72;;;15.70;99.90;;;;;;5057037;28;20195;-80
2023/08/08 06:57:38;;;;;;;10.48;7.53;;;15.70;99.90;;;;;;5057149;28;20697;-79
2023/08/08 07:00:06;;;;;;;10.20;7.55;;;15.80;99.90;;;;;;5057792;28;20203;-80
2023/08/08 07:02:33;;;;;;;11.48;7.13;;;15.90;99.90;;;;;;5057463;28;20199;-79
2023/08/08 07:05:00;;;;;;;12.30;8.40;;;15.90;99.90;;;;;;5057151;28;20700;-80
2023/08/08 07:07:27;;;;;;;12.70;8.35;;;15.90;99.90;;;;;;5057062;28;20309;-80
2023/08/08 07:09:55;;;;;;;11.65;7.50;;;16.10;99.90;;;;;;5047550;28;20202;-80
2023/08/08 07:12:22;;;;;;;9.18;7.68;;;16.10;99.90;;;;;;5057149;28;20583;-80
2023/08/08 07:14:49;;;;;;;13.30;8.43;;;16.10;99.90;;;;;;5057618;28;20203;-79
2023/08/08 07:17:16;;;;;;;10.27;7.93;;;16.10;99.90;;;;;;5056874;28;20282;-80
2023/08/08 07:19:43;;;;;;;9.77;7.93;;;16.10;99.90;;;;;;5057492;28;20679;-81
2023/08/08 07:22:10;;;;;;;10.88;7.88;;;16.20;99.90;;;;;;5055415;28;20198;-80
2023/08/08 07:24:38;;;;;;;13.50;8.38;;;16.10;99.90;;;;;;5054553;28;20296;-80
2023/08/08 07:27:07;;;;;;;9.48;7.93;;;16.10;99.90;;;;;;5055510;28;20290;-80
2023/08/08 07:29:34;;;;;;;11.45;8.40;;;16.10;99.90;;;;;;5055311;28;20206;-79
2023/08/08 07:32:04;;;;;;;10.00;8.02;;;16.20;99.90;;;;;;5054214;28;20205;-79
2023/08/08 07:34:32;;;;;;;11.63;7.93;;;16.20;99.90;;;;;;5054983;28;20286;-79
2023/08/08 07:37:02;;;;;;;9.98;7.38;;;16.20;99.90;;;;;;5055466;28;20246;-80
2023/08/08 07:39:29;;;;;;;9.60;7.85;;;16.40;99.90;;;;;;5055256;28;20656;-80
2023/08/08 07:41:57;;;;;;;8.68;7.30;;;16.50;99.90;;;;;;5056205;28;20230;-80
2023/08/08 07:44:25;;;;;;;8.32;7.25;;;16.60;99.90;;;;;;5055774;28;20353;-80
2023/08/08 07:46:52;;;;;;;8.98;6.38;;;16.70;99.90;;;;;;5055307;28;20235;-80
2023/08/08 07:49:19;;;;;;;9.68;5.90;;;16.80;99.90;;;;;;5054478;28;20720;-80
2023/08/08 07:51:46;;;;;;;10.23;5.70;;;16.80;99.90;;;;;;5054866;28;20286;-80
2023/08/08 07:54:13;;;;;;;7.43;6.03;;;16.70;99.90;;;;;;5055132;28;20191;-80
2023/08/08 07:56:40;;;;;;;7.88;5.93;;;16.70;99.90;;;;;;5054531;28;20214;-80
2023/08/08 07:59:08;;;;;;;10.82;5.55;;;16.80;99.90;;;;;;5053493;28;20223;-80
2023/08/08 08:01:36;;;;;;;6.53;5.10;;;16.80;99.90;;;;;;5053684;28;20213;-80
2023/08/08 08:04:03;;;;;;;6.50;4.70;;;16.90;99.90;;;;;;5055269;28;20222;-79
2023/08/08 08:06:30;;;;;;;5.63;4.53;;;17.10;99.90;;;;;;5055061;28;20207;-80
2023/08/08 08:08:57;;;;;;;7.03;5.38;;;17.30;99.90;;;;;;5054968;28;20224;-81
2023/08/08 08:11:24;;;;;;;7.00;4.90;;;17.10;99.90;;;;;;5055432;28;20578;-80
2023/08/08 08:13:53;;;;;;;6.90;5.20;;;17.10;99.90;;;;;;5054603;28;20210;-80
2023/08/08 08:16:20;;;;;;;8.00;4.70;;;17.50;99.90;;;;;;5054846;28;20673;-80
2023/08/08 08:18:48;;;;;;;9.18;4.63;;;17.50;99.90;;;;;;5053962;28;20318;-81
2023/08/08 08:21:17;;;;;;;3.88;3.40;;;17.50;99.90;;;;;;5054167;28;20203;-80
2023/08/08 08:23:44;;;;;;;6.30;3.50;;;17.40;99.90;;;;;;5053500;28;20218;-80
2023/08/08 08:26:10;;;;;;;7.32;4.15;;;17.70;99.90;;;;;;5053839;28;20202;-80
2023/08/08 08:28:39;;;;;;;4.50;3.65;;;17.70;99.90;;;;;;5051528;28;20227;-79
2023/08/08 08:31:07;;;;;;;5.00;3.50;;;17.50;99.90;;;;;;5053966;28;20199;-80
2023/08/08 08:33:34;;;;;;;6.88;4.13;;;17.60;99.90;;;;;;5054031;28;20213;-79
2023/08/08 08:36:03;;;;;;;8.23;4.13;;;17.80;99.90;;;;;;5046498;28;20191;-80
2023/08/08 08:38:29;;;;;;;8.13;3.70;;;17.60;99.90;;;;;;5054567;28;20580;-79
2023/08/08 08:40:58;;;;;;;6.25;3.40;;;17.30;99.90;;;;;;5054551;28;20293;-79
2023/08/08 08:43:25;;;;;;;7.57;4.68;;;17.20;99.90;;;;;;5056414;28;20703;-79
2023/08/08 08:45:55;;;;;;;5.03;4.18;;;16.90;99.90;;;;;;5058042;28;20215;-80
2023/08/08 08:48:22;;;;;;;7.93;5.53;;;16.60;99.90;;;;;;5058548;28;20219;-80
2023/08/08 08:50:49;;;;;;;11.02;6.28;;;16.00;99.90;;;;;;5059275;28;20206;-80
2023/08/08 08:53:22;;;;;;;12.40;6.72;;;15.60;99.90;;;;;;5059318;28;20205;-80
2023/08/08 08:55:49;;;;;;;9.88;6.38;;;15.20;99.90;;;;;;5072423;28;20672;-80
2023/08/08 08:58:17;;;;;;;8.85;6.60;;;15.10;99.90;;;;;;5056489;28;20229;-80
2023/08/08 09:00:46;;;;;;;9.60;6.35;;;15.20;99.90;;;;;;5056633;28;20207;-80
2023/08/08 09:03:13;;;;;;;9.45;6.75;;;15.20;99.90;;;;;;5058549;28;20199;-80
2023/08/08 09:05:43;;;;;;;9.68;6.28;;;15.10;99.90;;;;;;5058875;28;20222;-80
2023/08/08 09:08:11;;;;;;;8.68;6.65;;;15.20;99.90;;;;;;5057878;28;20250;-79
2023/08/08 09:10:40;;;;;;;8.30;6.80;;;15.20;99.90;;;;;;5058056;28;20207;-79
2023/08/08 09:13:07;;;;;;;11.77;6.50;;;15.20;99.90;;;;;;5058100;28;20261;-80
2023/08/08 09:15:35;;;;;;;7.65;6.53;;;15.20;99.90;;;;;;5058510;28;20203;-80
2023/08/08 09:18:02;;;;;;;8.27;6.95;;;15.20;99.90;;;;;;5058010;28;20218;-80
2023/08/08 09:20:28;;;;;;;11.60;6.78;;;15.30;99.90;;;;;;5059456;28;20199;-79
2023/08/08 09:22:56;;;;;;;8.80;6.35;;;15.40;99.90;;;;;;5057941;28;20209;-80
2023/08/08 09:25:23;;;;;;;11.35;7.57;;;15.70;99.90;;;;;;5058429;28;20301;-79
2023/08/08 09:27:51;;;;;;;9.80;7.93;;;16.60;99.90;;;;;;5058342;28;20281;-80
2023/08/08 09:30:18;;;;;;;13.05;6.55;;;17.10;99.90;;;;;;5057916;28;20201;-80
2023/08/08 09:32:45;;;;;;;9.32;6.10;;;17.00;99.90;;;;;;5058300;28;20687;-79
2023/08/08 09:35:12;;;;;;;12.00;6.53;;;16.70;99.90;;;;;;5057728;28;20207;-80
2023/08/08 09:37:39;;;;;;;8.68;6.35;;;16.20;99.90;;;;;;5057718;28;20250;-80
2023/08/08 09:40:10;;;;;;;9.68;6.50;;;16.00;99.90;;;;;;5049887;28;20203;-81
2023/08/08 09:42:37;;;;;;;10.27;7.13;;;15.60;99.90;;;;;;5058047;28;20199;-81
2023/08/08 09:45:08;;;;;;;10.38;7.50;;;15.60;99.90;;;;;;5057274;28;20215;-79
2023/08/08 09:47:36;;;;;;;11.13;7.53;;;15.60;99.90;;;;;;5057395;28;20227;-79
2023/08/08 09:50:05;;;;;;;7.32;6.03;;;15.60;99.90;;;;;;5057053;28;20677;-79
2023/08/08 09:52:33;;;;;;;6.72;5.72;;;15.50;99.90;;;;;;5057073;28;20218;-79
2023/08/08 09:55:02;;;;;;;10.65;6.82;;;15.80;99.90;;;;;;5056264;28;20225;-78
2023/08/08 09:57:29;;;;;;;9.90;6.53;;;16.50;99.90;;;;;;5057182;28;20615;-78
2023/08/08 09:59:56;;;;;;;8.35;6.85;;;16.30;99.90;;;;;;5057621;28;20225;-78
2023/08/08 10:02:25;;;;;;;11.75;7.65;;;16.00;99.90;;;;;;5057841;28;20199;-79
2023/08/08 10:04:53;;;;;;;13.23;8.02;;;16.70;99.90;;;;;;5057088;28;20219;-79
2023/08/08 10:07:20;;;;;;;13.18;9.02;;;17.20;99.90;;;;;;5056966;28;20199;-79
2023/08/08 10:09:48;;;;;;;12.32;8.00;;;17.50;99.90;;;;;;5057188;28;20203;-79
2023/08/08 10:12:15;;;;;;;12.48;8.27;;;17.50;99.90;;;;;;5057557;28;20195;-79
2023/08/08 10:14:43;;;;;;;10.50;6.93;;;17.70;99.90;;;;;;5057676;28;20233;-78
2023/08/08 10:17:15;;;;;;;9.32;6.70;;;17.80;99.90;;;;;;5048261;28;20697;-78
2023/08/08 10:19:51;;;;;;;7.47;6.05;;;18.40;99.90;;;;;;5056463;28;20210;-78
2023/08/08 10:22:23;;;;;;;9.25;6.05;;;18.30;99.90;;;;;;5048775;28;20209;-78
2023/08/08 10:24:52;;;;;;;7.95;5.80;;;18.40;99.90;;;;;;5055900;28;20229;-78
2023/08/08 10:27:29;;;;;;;8.55;5.45;;;18.70;99.90;;;;;;5055894;28;20199;-77
2023/08/08 10:30:03;;;;;;;9.00;5.78;;;18.40;99.90;;;;;;5056363;28;20256;-78
2023/08/08 10:32:40;;;;;;;8.32;5.28;;;18.60;99.90;;;;;;5055560;28;20567;-77
2023/08/08 10:35:09;;;;;;;11.30;5.28;;;18.90;99.90;;;;;;5055423;28;20207;-77
2023/08/08 10:37:37;;;;;;;10.68;6.07;;;18.80;99.90;;;;;;5055471;28;20227;-77
2023/08/08 10:40:06;;;;;;;9.02;5.20;;;19.40;99.90;;;;;;5055572;28;20252;-78
2023/08/08 10:42:41;;;;;;;7.85;5.13;;;19.60;99.90;;;;;;5055922;28;20264;-79
2023/08/08 10:45:12;;;;;;;7.57;4.90;;;19.10;99.90;;;;;;5055432;28;20568;-79
2023/08/08 10:47:39;;;;;;;7.55;4.85;;;19.70;99.90;;;;;;5055539;28;20237;-78
2023/08/08 10:50:11;;;;;;;5.68;4.50;;;19.70;99.90;;;;;;5055199;28;20224;-78
2023/08/08 10:52:50;;;;;;;8.48;4.93;;;19.70;99.90;;;;;;5055894;28;20210;-77
2023/08/08 10:55:20;;;;;;;7.97;4.78;;;19.10;99.90;;;;;;5039620;28;20212;-78
2023/08/08 10:57:55;;;;;;;8.20;5.30;;;19.00;99.90;;;;;;5052026;28;20229;-78
2023/08/08 11:00:26;;;;;;;7.45;4.78;;;19.20;99.90;;;;;;5053569;28;20209;-78
2023/08/08 11:02:54;;;;;;;7.47;4.88;;;19.20;99.90;;;;;;5054412;28;20203;-77
2023/08/08 11:05:23;;;;;;;6.78;4.70;;;18.80;99.90;;;;;;5052398;28;20282;-78
2023/08/08 11:07:50;;;;;;;4.82;3.90;;;18.60;99.90;;;;;;5057066;28;20258;-79
2023/08/08 11:10:17;;;;;;;6.25;3.80;;;18.30;99.90;;;;;;5062587;28;20717;-78
2023/08/08 11:12:57;;;;;;;7.20;3.90;;;18.00;99.90;;;;;;5054953;28;20206;-78
2023/08/08 11:15:24;;;;;;;9.48;4.05;;;17.70;99.90;;;;;;5047597;28;20615;-77
2023/08/08 11:17:52;;;;;;;7.88;3.90;;;17.60;99.90;;;;;;5054318;28;20229;-79
2023/08/08 11:20:19;;;;;;;6.18;3.60;;;17.80;99.90;;;;;;5054869;28;20206;-79
2023/08/08 11:22:53;;;;;;;5.28;3.63;;;18.40;99.90;;;;;;5055646;28;20578;-78
2023/08/08 11:25:20;;;;;;;6.03;2.90;;;19.10;99.90;;;;;;5047937;28;20592;-78
2023/08/08 11:27:52;;;;;;;3.92;2.65;;;19.60;99.90;;;;;;5054693;28;20226;-78
2023/08/08 11:30:19;;;;;;;3.25;2.53;;;19.90;99.90;;;;;;5055876;28;20199;-77
2023/08/08 11:32:47;;;;;;;4.68;2.50;;;20.10;99.90;;;;;;5055108;28;20209;-78
2023/08/08 11:35:17;;;;;;;3.00;2.35;;;20.30;99.90;;;;;;5054711;28;20851;-78
2023/08/08 11:37:45;;;;;;;3.97;2.35;;;20.40;99.90;;;;;;5055617;28;20231;-79
2023/08/08 11:40:14;;;;;;;3.38;2.10;;;20.60;99.90;;;;;;5055387;28;22504;-79
2023/08/08 11:42:42;;;;;;;5.53;2.80;;;20.40;99.90;;;;;;5055826;28;20199;-80
2023/08/08 11:45:10;;;;;;;3.08;1.80;;;20.90;99.90;;;;;;5055223;28;20549;-78
2023/08/08 11:47:39;;;;;;;3.33;2.35;;;21.00;99.90;;;;;;5054597;28;20219;-79
2023/08/08 11:50:08;;;;;;;2.83;2.30;;;21.30;99.90;;;;;;5054837;28;20298;-79
2023/08/08 11:52:36;;;;;;;3.38;2.20;;;21.80;99.90;;;;;;5055256;28;20282;-79
2023/08/08 11:55:05;;;;;;;4.88;2.75;;;21.10;99.90;;;;;;5055184;28;20290;-80
2023/08/08 11:57:36;;;;;;;7.95;3.30;;;20.70;99.90;;;;;;5054422;28;20302;-80
2023/08/08 12:00:04;;;;;;;4.03;2.90;;;20.50;99.90;;;;;;5055525;28;20207;-80
2023/08/08 12:02:31;;;;;;;7.25;3.15;;;20.50;99.90;;;;;;5054624;28;20478;-80
2023/08/08 12:05:05;;;;;;;3.60;2.72;;;21.20;99.90;;;;;;5054976;28;20199;-81
2023/08/08 12:07:33;;;;;;;5.45;2.30;;;21.10;99.90;;;;;;5054622;28;20233;-79
2023/08/08 12:10:00;;;;;;;4.50;2.40;;;20.60;99.90;;;;;;5054853;28;20207;-79
2023/08/08 12:12:27;;;;;;;3.03;2.00;;;20.50;99.90;;;;;;5055229;28;20737;-80
2023/08/08 12:14:56;;;;;;;5.85;2.22;;;20.30;99.90;;;;;;5051289;28;20199;-80
2023/08/08 12:17:23;;;;;;;4.68;2.28;;;20.70;99.90;;;;;;5052875;28;20207;-80
2023/08/08 12:19:49;;;;;;;3.05;2.03;;;21.40;99.90;;;;;;5058860;28;20653;-78
2023/08/08 12:22:16;;;;;;;2.50;1.92;;;21.10;99.90;;;;;;5056392;28;20213;-79
2023/08/08 12:24:43;;;;;;;2.88;1.70;;;21.30;99.90;;;;;;5059095;28;20199;-79
2023/08/08 12:27:10;;;;;;;3.95;1.52;;;20.80;99.90;;;;;;5058369;28;20225;-79
2023/08/08 12:29:36;;;;;;;3.92;2.10;;;20.50;99.90;;;;;;5059035;28;20203;-79
2023/08/08 12:32:07;;;;;;;3.42;1.52;;;20.10;99.90;;;;;;5059233;28;20230;-80
2023/08/08 12:34:35;;;;;;;4.25;1.80;;;20.10;99.90;;;;;;5057566;28;20210;-79
2023/08/08 12:37:02;;;;;;;3.10;1.50;;;20.10;99.90;;;;;;5058753;28;20207;-79
2023/08/08 12:39:29;;;;;;;3.45;1.88;;;20.50;99.90;;;;;;5058572;28;20223;-80
2023/08/08 12:41:56;;;;;;;4.22;1.85;;;20.30;99.90;;;;;;5059012;28;20214;-79
2023/08/08 12:44:23;;;;;;;3.00;1.83;;;20.20;99.90;;;;;;5058800;28;20221;-80
2023/08/08 12:46:50;;;;;;;2.88;2.00;;;20.30;99.90;;;;;;5058849;28;20226;-81
2023/08/08 12:49:18;;;;;;;4.97;1.90;;;20.90;99.90;;;;;;5058091;28;20325;-80